Terminal Aerodrome Forecast
Issued by NWS

Home | Current Version | Previous Version | Text Only | Print | Product List | Glossary On
Versions: 1 2 3 4 5 6 7 8 9 10 11 12 13 14 15 16 17 18 19 20 21 22 23 24 25 26 27
000
FTUS41 KOKX 221400 AAA
TAFGON
TAF AMD
KGON 221430Z 2215/2312 07007KT P6SM SCT035 BKN060
     FM221800 08010KT P6SM SCT025 BKN035
     FM230200 06007KT P6SM BKN020 OVC035=

USA.gov is the U.S. government's official web portal to all federal, state and local government web resources and services.